• Join FlightAware (Why Join?)
  • Login
  • US Flag 
03:11AM EDT


 

Airport Tracker/Info


-or-


 

Live Flight TrackerFlight Track Log ✈ RPA3228 ✈ 18-Sep-2013 ✈ KBNA - KDCA

Flight Track Log - Related Links

Times and Time Zones

All times are in EDT time to prevent confusion due to time zone crossing. See the RPA3228 flight status page for this flight to view local times or setup timezone preferences in your user account.

Time Position Orientation Groundspeed Altitude Reporting Facility
EDT Latitude Longitude Course Direction KTS MPH feet Rate Location/Type
07:46AM 36.1000 -86.6833 56° Northeast 141 162 1,400  Level Nashville TRACON
07:47AM 36.0667 -86.6500 141° Southeast 198 228 3,200 2,100 Climbing Nashville TRACON
07:48AM 36.2554 -86.2847 64° Northeast  Level Estimated
07:48AM 36.0667 -86.5833 90° East 285 328 5,500  Level Nashville TRACON
07:48AM 36.0800 -86.5100 77° East 301 346 7,900 2,880 Climbing Memphis Center
07:49AM 36.2987 -86.1532 68° East  Level Estimated
07:49AM 36.1064 -86.4136 71° East 311 358 10,600  Level Memphis Center
07:50AM 36.3419 -86.0216 50° Northeast  Level Estimated
07:50AM 36.1342 -86.3094 72° East 313 360 12,400  Level Memphis Center
07:51AM 36.3850 -85.8898 56° Northeast  Level Estimated
07:51AM 36.1658 -86.1972 71° East 327 376 14,700  Level Memphis Center
07:52AM 36.1975 -86.0825 71° East 338 389 16,700 1,980 Climbing Memphis Center
07:53AM 36.2456 -85.9694 62° Northeast 349 402 18,700 1,920 Climbing Memphis Center
07:54AM 36.2900 -85.8692 61° Northeast 369 425 20,600 1,980 Climbing Memphis Center
07:55AM 36.3164 -85.8094 61° Northeast 383 441 21,700 1,980 Climbing Indianapolis Center
07:56AM 36.3739 -85.6908 59° Northeast 396 456 23,700 1,800 Climbing Indianapolis Center
07:57AM 36.4328 -85.5672 59° Northeast 411 473 25,400 1,680 Climbing Indianapolis Center
07:58AM 36.4936 -85.4389 59° Northeast 424 488 27,200 1,680 Climbing Indianapolis Center
07:59AM 36.5661 -85.2831 60° Northeast 433 498 28,900 1,440 Climbing Indianapolis Center
08:00AM 36.6258 -85.1461 61° Northeast 445 512 30,200 1,020 Climbing Indianapolis Center
08:01AM 36.6703 -84.9978 69° East 452 520 31,000 360 Climbing Indianapolis Center
08:02AM 36.7164 -84.8483 69° East 459 528 31,000  Level Indianapolis Center
08:03AM 36.7614 -84.6983 69° East 460 529 31,000  Level Indianapolis Center
08:04AM 36.8067 -84.5494 69° East 459 528 31,000  Level Indianapolis Center
08:05AM 36.8564 -84.3872 69° East 450 518 31,000  Level Indianapolis Center
08:06AM 36.9006 -84.2383 70° East 454 522 31,000  Level Indianapolis Center
08:07AM 36.9444 -84.0900 70° East 454 522 31,000  Level Indianapolis Center
08:08AM 36.9886 -83.9442 69° East 448 516 31,000  Level Indianapolis Center
08:09AM 37.0319 -83.7983 70° East 445 512 31,000  Level Indianapolis Center
08:10AM 37.0725 -83.6628 69° East 419 482 31,000  Level Indianapolis Center
08:11AM 37.1125 -83.5244 70° East 421 484 31,000  Level Indianapolis Center
08:12AM 37.1594 -83.3636 70° East 420 483 31,000  Level Indianapolis Center
08:13AM 37.1986 -83.2247 70° East 420 483 31,000  Level Indianapolis Center
08:14AM 37.2392 -83.0864 70° East 419 482 31,000  Level Indianapolis Center
08:15AM 37.2828 -82.9494 68° East 419 482 31,000  Level Indianapolis Center
08:16AM 37.3325 -82.8153 65° Northeast 420 483 31,000  Level Indianapolis Center
08:17AM 37.3811 -82.6822 65° Northeast 416 479 31,000  Level Indianapolis Center
08:19AM 37.4253 -82.5467 68° East 418 481 31,000  Level Indianapolis Center
08:20AM 37.4594 -82.4053 73° East 419 482 31,000  Level Indianapolis Center
08:21AM 37.4958 -82.2653 72° East 419 482 31,000  Level Indianapolis Center
08:22AM 37.5375 -82.1028 72° East 419 482 31,000  Level Indianapolis Center
08:23AM 37.5728 -81.9631 72° East 417 480 31,000  Level Indianapolis Center
08:24AM 37.6081 -81.8242 72° East 416 479 31,000  Level Indianapolis Center
08:25AM 37.6422 -81.6844 73° East 416 479 31,000  Level Indianapolis Center
08:26AM 37.6778 -81.5456 72° East 416 479 31,000  Level Indianapolis Center
08:27AM 37.7158 -81.3911 73° East 419 482 31,000  Level Indianapolis Center
08:28AM 37.7497 -81.2542 73° East 418 481 31,000  Level Indianapolis Center
08:29AM 37.7842 -81.1169 72° East 422 486 31,000  Level Indianapolis Center
08:30AM 37.8331 -80.9783 66° East 418 481 31,000  Level Indianapolis Center
08:31AM 37.8797 -80.8450 66° East 417 480 31,000  Level Indianapolis Center
08:32AM 37.9269 -80.7117 66° East 416 479 31,000  Level Indianapolis Center
08:33AM 37.9686 -80.5967 65° Northeast 412 474 31,000  Level Washington Center
08:34AM 38.0158 -80.4653 65° Northeast 407 468 31,000  Level Washington Center
08:35AM 38.0606 -80.3417 65° Northeast 407 468 31,000  Level Washington Center
08:36AM 38.1075 -80.2075 66° East 407 468 31,000  Level Washington Center
08:37AM 38.1542 -80.0756 66° East 407 468 31,000  Level Washington Center
08:38AM 38.2008 -79.9411 66° East 407 468 31,000  Level Washington Center
08:39AM 38.2517 -79.8039 65° Northeast 407 468 31,000  Level Washington Center
08:40AM 38.3025 -79.6558 66° East 412 474 31,000  Level Washington Center
08:41AM 38.3486 -79.5233 66° East 412 474 31,000  Level Washington Center
08:42AM 38.3947 -79.3881 66° East 412 474 31,000 -600 Level Washington Center
08:43AM 38.4347 -79.2469 70° East 412 474 29,800 -1,680 Descending Washington Center
08:44AM 38.4619 -79.1025 76° East 412 474 27,600 -1,440 Descending Washington Center
08:45AM 38.4844 -78.9656 78° East 423 487 27,000 -1,260 Descending Washington Center
08:46AM 38.5100 -78.7969 79° East 429 494 25,200 -2,040 Descending Washington Center
08:47AM 38.5306 -78.6492 80° East 429 494 22,900 -1,740 Descending Washington Center
08:48AM 38.5550 -78.5067 78° East 424 488 21,800 -1,140 Descending Washington Center
08:49AM 38.5769 -78.3669 79° East 424 488 20,700 -1,500 Descending Washington Center
08:50AM 38.6053 -78.2272 75° East 407 468 18,800 -1,740 Descending Washington Center
08:51AM 38.6433 -78.1061 68° East 382 440 17,300 -1,740 Descending Washington Center
08:52AM 38.6811 -77.9878 68° East 367 422 15,400 -1,800 Descending Washington Center
08:53AM 38.7167 -77.8772 68° East 347 399 13,700 -1,560 Descending Washington Center
08:54AM 38.7622 -77.7828 58° Northeast 324 373 12,300 -1,380 Descending Washington Center
08:55AM 38.8178 -77.7019 49° Northeast 311 358 11,100 -1,200 Descending Washington Center
08:56AM 38.8483 -77.6147 66° East 298 343 10,000 -1,200 Descending Washington Center
08:57AM 38.8875 -77.5144 63° Northeast 284 327 8,800 -1,080 Descending Washington Center
08:58AM 38.9056 -77.4375 73° East 255 293 7,900 -1,080 Descending Washington Center
08:59AM 38.8667 -77.3500 120° Southeast 231 266 6,700 -960 Descending Potomac TRACON
09:00AM 38.8333 -77.2833 123° Southeast 227 261 6,000 -420 Descending Potomac TRACON
09:01AM 38.8167 -77.2167 108° East 223 257 6,000  Level Potomac TRACON
09:02AM 38.7833 -77.1500 123° Southeast 207 238 6,000 -60 Level Potomac TRACON
09:03AM 38.7500 -77.1167 142° Southeast 211 243 5,900 -780 Descending Potomac TRACON
09:04AM 38.6833 -77.1000 169° South 205 236 4,600 -1,020 Descending Potomac TRACON
09:04AM 38.6333 -77.1000 180° South 199 229 4,000 -360 Descending Potomac TRACON
09:05AM 38.6333 -77.0500 90° East 186 214 4,000 -180 Level Potomac TRACON
09:06AM 38.6667 -77.0167 38° Northeast 184 212 3,700 -660 Descending Potomac TRACON
09:07AM 38.7167 -77.0167 360° North 178 205 2,700 -1,020 Descending Potomac TRACON
09:08AM 38.7500 -77.0333 339° North 175 201 1,700 -900 Descending Potomac TRACON
09:09AM 38.8000 -77.0333 360° North 146 168 1,000 -720 Descending Potomac TRACON